sensor_id;sensor_type;location;lat;lon;timestamp;P1;durP1;ratioP1;P2;durP2;ratioP2
58926;SDS011;44712;52.530;9.760;2022-09-01T00:01:48;3.92;;;2.70;;
58926;SDS011;44712;52.530;9.760;2022-09-01T00:04:18;3.28;;;2.53;;
58926;SDS011;44712;52.530;9.760;2022-09-01T00:06:51;4.38;;;2.53;;
58926;SDS011;44712;52.530;9.760;2022-09-01T00:09:20;2.67;;;2.47;;
58926;SDS011;44712;52.530;9.760;2022-09-01T00:11:50;2.75;;;2.28;;
58926;SDS011;44712;52.530;9.760;2022-09-01T00:14:30;4.43;;;2.70;;
58926;SDS011;44712;52.530;9.760;2022-09-01T00:16:59;3.50;;;2.50;;
58926;SDS011;44712;52.530;9.760;2022-09-01T00:19:27;3.58;;;2.85;;
58926;SDS011;44712;52.530;9.760;2022-09-01T00:21:55;2.92;;;2.55;;
58926;SDS011;44712;52.530;9.760;2022-09-01T00:24:22;2.63;;;2.42;;
58926;SDS011;44712;52.530;9.760;2022-09-01T00:26:54;6.82;;;2.80;;
58926;SDS011;44712;52.530;9.760;2022-09-01T00:29:22;7.43;;;3.03;;
58926;SDS011;44712;52.530;9.760;2022-09-01T00:31:50;4.03;;;2.58;;
58926;SDS011;44712;52.530;9.760;2022-09-01T00:34:17;4.20;;;3.05;;
58926;SDS011;44712;52.530;9.760;2022-09-01T00:36:44;4.30;;;2.70;;
58926;SDS011;44712;52.530;9.760;2022-09-01T00:39:13;4.90;;;2.80;;
58926;SDS011;44712;52.530;9.760;2022-09-01T00:41:45;3.20;;;2.65;;
58926;SDS011;44712;52.530;9.760;2022-09-01T00:44:14;4.43;;;2.55;;
58926;SDS011;44712;52.530;9.760;2022-09-01T00:46:45;2.58;;;2.38;;
58926;SDS011;44712;52.530;9.760;2022-09-01T00:49:23;2.72;;;2.53;;
58926;SDS011;44712;52.530;9.760;2022-09-01T00:52:10;4.20;;;3.05;;
58926;SDS011;44712;52.530;9.760;2022-09-01T00:54:42;5.10;;;2.90;;
58926;SDS011;44712;52.530;9.760;2022-09-01T00:57:13;3.53;;;2.88;;
58926;SDS011;44712;52.530;9.760;2022-09-01T00:59:49;4.05;;;2.92;;
58926;SDS011;44712;52.530;9.760;2022-09-01T01:02:20;3.90;;;3.08;;
58926;SDS011;44712;52.530;9.760;2022-09-01T01:04:48;3.97;;;3.30;;
58926;SDS011;44712;52.530;9.760;2022-09-01T01:07:15;3.60;;;3.30;;
58926;SDS011;44712;52.530;9.760;2022-09-01T01:09:43;3.40;;;3.10;;
58926;SDS011;44712;52.530;9.760;2022-09-01T01:12:11;3.20;;;2.90;;
58926;SDS011;44712;52.530;9.760;2022-09-01T01:14:41;4.18;;;3.22;;
58926;SDS011;44712;52.530;9.760;2022-09-01T01:17:11;3.70;;;3.28;;
58926;SDS011;44712;52.530;9.760;2022-09-01T01:19:40;4.18;;;3.28;;
58926;SDS011;44712;52.530;9.760;2022-09-01T01:22:44;5.45;;;3.17;;
58926;SDS011;44712;52.530;9.760;2022-09-01T01:25:36;5.85;;;3.35;;
58926;SDS011;44712;52.530;9.760;2022-09-01T01:30:55;4.38;;;3.30;;
58926;SDS011;44712;52.530;9.760;2022-09-01T01:33:29;3.92;;;3.53;;
58926;SDS011;44712;52.530;9.760;2022-09-01T01:35:58;3.88;;;3.50;;
58926;SDS011;44712;52.530;9.760;2022-09-01T01:38:26;5.22;;;3.97;;
58926;SDS011;44712;52.530;9.760;2022-09-01T01:40:55;4.28;;;3.58;;
58926;SDS011;44712;52.530;9.760;2022-09-01T01:43:23;4.28;;;3.88;;
58926;SDS011;44712;52.530;9.760;2022-09-01T01:45:52;5.40;;;3.60;;
58926;SDS011;44712;52.530;9.760;2022-09-01T01:48:24;6.53;;;3.58;;
58926;SDS011;44712;52.530;9.760;2022-09-01T01:50:51;5.60;;;3.85;;
58926;SDS011;44712;52.530;9.760;2022-09-01T01:53:21;5.30;;;3.70;;
58926;SDS011;44712;52.530;9.760;2022-09-01T01:55:48;4.22;;;3.65;;
58926;SDS011;44712;52.530;9.760;2022-09-01T01:58:16;4.65;;;3.75;;
58926;SDS011;44712;52.530;9.760;2022-09-01T02:00:46;3.85;;;3.50;;
58926;SDS011;44712;52.530;9.760;2022-09-01T02:03:15;4.38;;;3.60;;
58926;SDS011;44712;52.530;9.760;2022-09-01T02:05:46;4.15;;;3.75;;
58926;SDS011;44712;52.530;9.760;2022-09-01T02:08:15;4.70;;;3.90;;
58926;SDS011;44712;52.530;9.760;2022-09-01T02:10:49;4.25;;;3.80;;
58926;SDS011;44712;52.530;9.760;2022-09-01T02:13:19;4.35;;;3.95;;
58926;SDS011;44712;52.530;9.760;2022-09-01T02:15:52;6.90;;;4.18;;
58926;SDS011;44712;52.530;9.760;2022-09-01T02:18:22;4.95;;;3.95;;
58926;SDS011;44712;52.530;9.760;2022-09-01T02:20:56;4.65;;;3.95;;
58926;SDS011;44712;52.530;9.760;2022-09-01T02:23:26;5.97;;;4.40;;
58926;SDS011;44712;52.530;9.760;2022-09-01T02:25:57;9.90;;;5.10;;
58926;SDS011;44712;52.530;9.760;2022-09-01T02:28:46;6.65;;;4.25;;
58926;SDS011;44712;52.530;9.760;2022-09-01T02:31:24;7.78;;;4.85;;
58926;SDS011;44712;52.530;9.760;2022-09-01T02:33:57;4.85;;;4.32;;
58926;SDS011;44712;52.530;9.760;2022-09-01T02:36:24;4.55;;;4.15;;
58926;SDS011;44712;52.530;9.760;2022-09-01T02:38:52;4.95;;;4.47;;
58926;SDS011;44712;52.530;9.760;2022-09-01T02:41:22;6.22;;;4.40;;
58926;SDS011;44712;52.530;9.760;2022-09-01T02:43:56;4.68;;;4.28;;
58926;SDS011;44712;52.530;9.760;2022-09-01T02:46:24;4.85;;;4.07;;
58926;SDS011;44712;52.530;9.760;2022-09-01T02:48:51;6.40;;;4.30;;
58926;SDS011;44712;52.530;9.760;2022-09-01T02:51:20;5.03;;;4.40;;
58926;SDS011;44712;52.530;9.760;2022-09-01T02:53:51;5.57;;;4.10;;
58926;SDS011;44712;52.530;9.760;2022-09-01T02:56:22;4.80;;;4.40;;
58926;SDS011;44712;52.530;9.760;2022-09-01T02:58:52;4.95;;;4.03;;
58926;SDS011;44712;52.530;9.760;2022-09-01T03:01:25;7.18;;;4.78;;
58926;SDS011;44712;52.530;9.760;2022-09-01T03:03:57;5.18;;;4.32;;
58926;SDS011;44712;52.530;9.760;2022-09-01T03:06:27;5.25;;;4.72;;
58926;SDS011;44712;52.530;9.760;2022-09-01T03:08:56;5.05;;;4.25;;
58926;SDS011;44712;52.530;9.760;2022-09-01T03:11:28;4.13;;;3.63;;
58926;SDS011;44712;52.530;9.760;2022-09-01T03:13:56;4.82;;;4.05;;
58926;SDS011;44712;52.530;9.760;2022-09-01T03:16:23;5.15;;;4.05;;
58926;SDS011;44712;52.530;9.760;2022-09-01T03:18:50;5.93;;;4.03;;
58926;SDS011;44712;52.530;9.760;2022-09-01T03:21:18;5.07;;;4.57;;
58926;SDS011;44712;52.530;9.760;2022-09-01T03:23:48;5.13;;;4.60;;
58926;SDS011;44712;52.530;9.760;2022-09-01T03:26:16;6.00;;;4.15;;
58926;SDS011;44712;52.530;9.760;2022-09-01T03:28:48;5.97;;;4.28;;
58926;SDS011;44712;52.530;9.760;2022-09-01T03:31:16;4.80;;;4.40;;
58926;SDS011;44712;52.530;9.760;2022-09-01T03:33:45;4.88;;;4.13;;
58926;SDS011;44712;52.530;9.760;2022-09-01T03:36:20;6.72;;;4.03;;
58926;SDS011;44712;52.530;9.760;2022-09-01T03:38:47;7.32;;;4.30;;
58926;SDS011;44712;52.530;9.760;2022-09-01T03:41:19;5.60;;;4.85;;
58926;SDS011;44712;52.530;9.760;2022-09-01T03:43:48;4.95;;;3.90;;
58926;SDS011;44712;52.530;9.760;2022-09-01T03:46:16;4.22;;;3.70;;
58926;SDS011;44712;52.530;9.760;2022-09-01T03:48:54;5.18;;;3.75;;
58926;SDS011;44712;52.530;9.760;2022-09-01T03:51:25;4.28;;;3.90;;
58926;SDS011;44712;52.530;9.760;2022-09-01T03:53:53;4.50;;;4.05;;
58926;SDS011;44712;52.530;9.760;2022-09-01T03:56:21;5.40;;;4.07;;
58926;SDS011;44712;52.530;9.760;2022-09-01T03:58:56;3.67;;;3.38;;
58926;SDS011;44712;52.530;9.760;2022-09-01T04:01:25;4.00;;;3.63;;
58926;SDS011;44712;52.530;9.760;2022-09-01T04:03:53;5.07;;;3.97;;
58926;SDS011;44712;52.530;9.760;2022-09-01T04:06:32;3.78;;;3.47;;
58926;SDS011;44712;52.530;9.760;2022-09-01T04:08:59;5.50;;;3.63;;
58926;SDS011;44712;52.530;9.760;2022-09-01T04:11:30;3.97;;;3.65;;
58926;SDS011;44712;52.530;9.760;2022-09-01T04:13:57;4.50;;;4.10;;
58926;SDS011;44712;52.530;9.760;2022-09-01T04:16:26;4.72;;;3.92;;
58926;SDS011;44712;52.530;9.760;2022-09-01T04:19:16;5.85;;;4.03;;
58926;SDS011;44712;52.530;9.760;2022-09-01T04:21:53;4.20;;;3.80;;
58926;SDS011;44712;52.530;9.760;2022-09-01T04:24:26;5.53;;;4.60;;
58926;SDS011;44712;52.530;9.760;2022-09-01T04:26:56;4.30;;;3.90;;
58926;SDS011;44712;52.530;9.760;2022-09-01T04:29:27;4.75;;;4.35;;
58926;SDS011;44712;52.530;9.760;2022-09-01T04:31:57;4.40;;;4.00;;
58926;SDS011;44712;52.530;9.760;2022-09-01T04:37:07;5.13;;;3.95;;
58926;SDS011;44712;52.530;9.760;2022-09-01T04:39:47;4.45;;;4.05;;
58926;SDS011;44712;52.530;9.760;2022-09-01T04:42:23;4.32;;;4.03;;
58926;SDS011;44712;52.530;9.760;2022-09-01T04:44:52;5.75;;;4.22;;
58926;SDS011;44712;52.530;9.760;2022-09-01T04:47:23;5.82;;;4.40;;
58926;SDS011;44712;52.530;9.760;2022-09-01T04:50:03;5.03;;;3.88;;
58926;SDS011;44712;52.530;9.760;2022-09-01T04:52:42;4.78;;;4.38;;
58926;SDS011;44712;52.530;9.760;2022-09-01T04:55:19;7.47;;;5.28;;
58926;SDS011;44712;52.530;9.760;2022-09-01T04:57:46;5.30;;;4.30;;
58926;SDS011;44712;52.530;9.760;2022-09-01T05:00:15;5.05;;;4.28;;
58926;SDS011;44712;52.530;9.760;2022-09-01T05:02:51;5.82;;;4.18;;
58926;SDS011;44712;52.530;9.760;2022-09-01T05:05:22;4.38;;;3.97;;
58926;SDS011;44712;52.530;9.760;2022-09-01T05:07:49;4.65;;;4.15;;
58926;SDS011;44712;52.530;9.760;2022-09-01T05:10:21;4.90;;;4.30;;
58926;SDS011;44712;52.530;9.760;2022-09-01T05:13:13;5.93;;;5.00;;
58926;SDS011;44712;52.530;9.760;2022-09-01T05:15:44;4.72;;;4.32;;
58926;SDS011;44712;52.530;9.760;2022-09-01T05:18:17;5.05;;;4.50;;
58926;SDS011;44712;52.530;9.760;2022-09-01T05:20:54;4.25;;;3.90;;
58926;SDS011;44712;52.530;9.760;2022-09-01T05:23:20;5.22;;;4.25;;
58926;SDS011;44712;52.530;9.760;2022-09-01T05:25:48;5.25;;;4.75;;
58926;SDS011;44712;52.530;9.760;2022-09-01T05:28:18;4.80;;;4.38;;
58926;SDS011;44712;52.530;9.760;2022-09-01T05:30:46;4.72;;;4.25;;
58926;SDS011;44712;52.530;9.760;2022-09-01T05:33:13;4.80;;;4.40;;
58926;SDS011;44712;52.530;9.760;2022-09-01T05:35:51;4.53;;;4.07;;
58926;SDS011;44712;52.530;9.760;2022-09-01T05:38:22;5.00;;;4.50;;
58926;SDS011;44712;52.530;9.760;2022-09-01T05:40:55;5.65;;;4.35;;
58926;SDS011;44712;52.530;9.760;2022-09-01T05:43:23;5.40;;;4.70;;
58926;SDS011;44712;52.530;9.760;2022-09-01T05:45:53;5.00;;;4.47;;
58926;SDS011;44712;52.530;9.760;2022-09-01T05:48:34;4.60;;;4.20;;
58926;SDS011;44712;52.530;9.760;2022-09-01T05:51:06;5.38;;;4.80;;
58926;SDS011;44712;52.530;9.760;2022-09-01T05:53:56;6.35;;;4.45;;
58926;SDS011;44712;52.530;9.760;2022-09-01T05:56:25;4.63;;;4.15;;
58926;SDS011;44712;52.530;9.760;2022-09-01T05:58:54;7.97;;;4.70;;
58926;SDS011;44712;52.530;9.760;2022-09-01T06:01:43;6.85;;;5.00;;
58926;SDS011;44712;52.530;9.760;2022-09-01T06:04:15;5.23;;;4.43;;
58926;SDS011;44712;52.530;9.760;2022-09-01T06:06:44;5.25;;;4.43;;
58926;SDS011;44712;52.530;9.760;2022-09-01T06:09:37;5.78;;;4.32;;
58926;SDS011;44712;52.530;9.760;2022-09-01T06:12:09;6.18;;;4.47;;
58926;SDS011;44712;52.530;9.760;2022-09-01T06:14:44;4.85;;;4.35;;
58926;SDS011;44712;52.530;9.760;2022-09-01T06:17:13;6.65;;;4.75;;
58926;SDS011;44712;52.530;9.760;2022-09-01T06:19:44;6.47;;;4.20;;
58926;SDS011;44712;52.530;9.760;2022-09-01T06:22:11;4.10;;;3.72;;
58926;SDS011;44712;52.530;9.760;2022-09-01T06:24:38;4.43;;;4.03;;
58926;SDS011;44712;52.530;9.760;2022-09-01T06:27:09;6.13;;;4.40;;
58926;SDS011;44712;52.530;9.760;2022-09-01T06:29:36;5.25;;;4.15;;
58926;SDS011;44712;52.530;9.760;2022-09-01T06:32:05;4.72;;;4.32;;
58926;SDS011;44712;52.530;9.760;2022-09-01T06:34:37;6.30;;;5.20;;
58926;SDS011;44712;52.530;9.760;2022-09-01T06:37:07;8.30;;;5.60;;
58926;SDS011;44712;52.530;9.760;2022-09-01T06:39:36;5.43;;;4.47;;
58926;SDS011;44712;52.530;9.760;2022-09-01T06:42:03;6.10;;;4.65;;
58926;SDS011;44712;52.530;9.760;2022-09-01T06:44:43;6.40;;;4.57;;
58926;SDS011;44712;52.530;9.760;2022-09-01T06:47:11;5.13;;;4.22;;
58926;SDS011;44712;52.530;9.760;2022-09-01T06:49:38;6.43;;;4.40;;
58926;SDS011;44712;52.530;9.760;2022-09-01T06:54:39;6.30;;;4.18;;
58926;SDS011;44712;52.530;9.760;2022-09-01T06:57:09;9.15;;;5.53;;
58926;SDS011;44712;52.530;9.760;2022-09-01T06:59:56;4.80;;;4.30;;
58926;SDS011;44712;52.530;9.760;2022-09-01T07:02:23;5.55;;;3.78;;
58926;SDS011;44712;52.530;9.760;2022-09-01T07:05:28;5.22;;;3.47;;
58926;SDS011;44712;52.530;9.760;2022-09-01T07:08:28;4.30;;;3.45;;
58926;SDS011;44712;52.530;9.760;2022-09-01T07:11:06;4.53;;;3.25;;
58926;SDS011;44712;52.530;9.760;2022-09-01T07:14:03;5.35;;;3.10;;
58926;SDS011;44712;52.530;9.760;2022-09-01T07:16:46;3.58;;;2.70;;
58926;SDS011;44712;52.530;9.760;2022-09-01T07:19:19;4.05;;;2.50;;
58926;SDS011;44712;52.530;9.760;2022-09-01T07:21:56;2.47;;;2.28;;
58926;SDS011;44712;52.530;9.760;2022-09-01T07:24:46;2.83;;;2.33;;
58926;SDS011;44712;52.530;9.760;2022-09-01T07:27:56;2.65;;;2.22;;
58926;SDS011;44712;52.530;9.760;2022-09-01T07:30:26;3.30;;;2.92;;
58926;SDS011;44712;52.530;9.760;2022-09-01T07:32:52;3.67;;;2.50;;
58926;SDS011;44712;52.530;9.760;2022-09-01T07:35:43;3.90;;;2.47;;
58926;SDS011;44712;52.530;9.760;2022-09-01T07:38:30;2.65;;;2.05;;
58926;SDS011;44712;52.530;9.760;2022-09-01T07:41:19;3.78;;;2.45;;
58926;SDS011;44712;52.530;9.760;2022-09-01T07:44:40;1.80;;;1.70;;
58926;SDS011;44712;52.530;9.760;2022-09-01T07:47:28;2.63;;;2.10;;
58926;SDS011;44712;52.530;9.760;2022-09-01T07:50:15;4.18;;;2.00;;
58926;SDS011;44712;52.530;9.760;2022-09-01T07:53:04;2.88;;;1.70;;
58926;SDS011;44712;52.530;9.760;2022-09-01T07:55:31;2.03;;;1.40;;
58926;SDS011;44712;52.530;9.760;2022-09-01T07:58:02;4.75;;;2.10;;
58926;SDS011;44712;52.530;9.760;2022-09-01T08:00:30;1.80;;;1.50;;
58926;SDS011;44712;52.530;9.760;2022-09-01T08:03:04;2.95;;;1.45;;
58926;SDS011;44712;52.530;9.760;2022-09-01T08:05:32;1.67;;;1.38;;
58926;SDS011;44712;52.530;9.760;2022-09-01T08:08:04;2.47;;;1.40;;
58926;SDS011;44712;52.530;9.760;2022-09-01T08:10:44;2.45;;;1.30;;
58926;SDS011;44712;52.530;9.760;2022-09-01T08:13:15;3.42;;;1.40;;
58926;SDS011;44712;52.530;9.760;2022-09-01T08:15:47;2.10;;;1.25;;
58926;SDS011;44712;52.530;9.760;2022-09-01T08:18:35;1.67;;;1.20;;
58926;SDS011;44712;52.530;9.760;2022-09-01T08:21:31;2.45;;;1.40;;
58926;SDS011;44712;52.530;9.760;2022-09-01T08:24:00;1.63;;;1.00;;
58926;SDS011;44712;52.530;9.760;2022-09-01T08:26:28;1.50;;;1.23;;
58926;SDS011;44712;52.530;9.760;2022-09-01T08:28:59;2.95;;;1.13;;
58926;SDS011;44712;52.530;9.760;2022-09-01T08:31:32;2.65;;;1.17;;
58926;SDS011;44712;52.530;9.760;2022-09-01T08:34:02;1.40;;;1.15;;
58926;SDS011;44712;52.530;9.760;2022-09-01T08:36:32;3.45;;;1.15;;
58926;SDS011;44712;52.530;9.760;2022-09-01T08:39:00;1.45;;;1.10;;
58926;SDS011;44712;52.530;9.760;2022-09-01T08:46:47;1.58;;;0.98;;
58926;SDS011;44712;52.530;9.760;2022-09-01T08:49:20;1.48;;;1.00;;
58926;SDS011;44712;52.530;9.760;2022-09-01T08:52:12;2.00;;;1.10;;
58926;SDS011;44712;52.530;9.760;2022-09-01T08:54:55;3.08;;;0.93;;
58926;SDS011;44712;52.530;9.760;2022-09-01T08:57:33;2.20;;;1.15;;
58926;SDS011;44712;52.530;9.760;2022-09-01T09:00:21;10.77;;;2.60;;
58926;SDS011;44712;52.530;9.760;2022-09-01T09:06:23;1.42;;;1.02;;
58926;SDS011;44712;52.530;9.760;2022-09-01T09:09:00;0.98;;;0.70;;
58926;SDS011;44712;52.530;9.760;2022-09-01T09:11:44;1.95;;;0.85;;
58926;SDS011;44712;52.530;9.760;2022-09-01T09:17:24;1.75;;;0.77;;
58926;SDS011;44712;52.530;9.760;2022-09-01T09:19:57;1.60;;;0.90;;
58926;SDS011;44712;52.530;9.760;2022-09-01T09:22:26;1.15;;;0.85;;
58926;SDS011;44712;52.530;9.760;2022-09-01T09:25:10;1.15;;;0.80;;
58926;SDS011;44712;52.530;9.760;2022-09-01T09:27:48;1.98;;;1.50;;
58926;SDS011;44712;52.530;9.760;2022-09-01T09:30:28;1.20;;;0.90;;
58926;SDS011;44712;52.530;9.760;2022-09-01T09:32:58;1.63;;;1.00;;
58926;SDS011;44712;52.530;9.760;2022-09-01T09:35:50;1.30;;;0.88;;
58926;SDS011;44712;52.530;9.760;2022-09-01T09:38:21;2.75;;;0.93;;
58926;SDS011;44712;52.530;9.760;2022-09-01T09:41:05;1.85;;;0.70;;
58926;SDS011;44712;52.530;9.760;2022-09-01T09:44:03;1.02;;;0.80;;
58926;SDS011;44712;52.530;9.760;2022-09-01T09:46:43;2.22;;;0.90;;
58926;SDS011;44712;52.530;9.760;2022-09-01T09:54:38;1.13;;;0.93;;
58926;SDS011;44712;52.530;9.760;2022-09-01T09:57:11;1.60;;;0.88;;
58926;SDS011;44712;52.530;9.760;2022-09-01T09:59:45;1.83;;;1.00;;
58926;SDS011;44712;52.530;9.760;2022-09-01T10:02:38;1.23;;;0.70;;
58926;SDS011;44712;52.530;9.760;2022-09-01T10:05:25;1.33;;;0.70;;
58926;SDS011;44712;52.530;9.760;2022-09-01T10:13:24;6.85;;;0.80;;
58926;SDS011;44712;52.530;9.760;2022-09-01T10:15:59;1.55;;;1.05;;
58926;SDS011;44712;52.530;9.760;2022-09-01T10:18:35;0.98;;;0.60;;
58926;SDS011;44712;52.530;9.760;2022-09-01T10:21:15;3.67;;;0.90;;
58926;SDS011;44712;52.530;9.760;2022-09-01T10:26:48;0.90;;;0.70;;
58926;SDS011;44712;52.530;9.760;2022-09-01T10:32:15;1.58;;;1.00;;
58926;SDS011;44712;52.530;9.760;2022-09-01T10:35:06;1.08;;;0.75;;
58926;SDS011;44712;52.530;9.760;2022-09-01T10:37:36;1.55;;;0.80;;
58926;SDS011;44712;52.530;9.760;2022-09-01T10:40:08;1.10;;;0.73;;
58926;SDS011;44712;52.530;9.760;2022-09-01T10:45:53;1.45;;;0.90;;
58926;SDS011;44712;52.530;9.760;2022-09-01T10:48:31;2.03;;;0.73;;
58926;SDS011;44712;52.530;9.760;2022-09-01T10:53:53;1.73;;;1.00;;
58926;SDS011;44712;52.530;9.760;2022-09-01T11:02:17;1.75;;;0.82;;
58926;SDS011;44712;52.530;9.760;2022-09-01T11:13:10;2.30;;;1.02;;
58926;SDS011;44712;52.530;9.760;2022-09-01T11:15:54;1.42;;;0.80;;
58926;SDS011;44712;52.530;9.760;2022-09-01T11:18:26;1.67;;;0.93;;
58926;SDS011;44712;52.530;9.760;2022-09-01T11:21:15;1.20;;;0.75;;
58926;SDS011;44712;52.530;9.760;2022-09-01T11:24:04;2.00;;;0.80;;
58926;SDS011;44712;52.530;9.760;2022-09-01T11:26:56;0.90;;;0.75;;
58926;SDS011;44712;52.530;9.760;2022-09-01T11:32:23;1.95;;;0.80;;
58926;SDS011;44712;52.530;9.760;2022-09-01T11:34:56;2.85;;;0.98;;
58926;SDS011;44712;52.530;9.760;2022-09-01T11:37:27;3.50;;;0.80;;
58926;SDS011;44712;52.530;9.760;2022-09-01T11:39:54;1.45;;;1.13;;
58926;SDS011;44712;52.530;9.760;2022-09-01T11:42:30;1.67;;;0.70;;
58926;SDS011;44712;52.530;9.760;2022-09-01T11:45:20;1.02;;;0.80;;
58926;SDS011;44712;52.530;9.760;2022-09-01T11:47:51;0.80;;;0.70;;
58926;SDS011;44712;52.530;9.760;2022-09-01T11:50:32;1.85;;;1.00;;
58926;SDS011;44712;52.530;9.760;2022-09-01T11:55:42;1.23;;;0.70;;
58926;SDS011;44712;52.530;9.760;2022-09-01T11:58:12;1.88;;;0.70;;
58926;SDS011;44712;52.530;9.760;2022-09-01T12:00:54;1.10;;;0.50;;
58926;SDS011;44712;52.530;9.760;2022-09-01T12:03:24;1.85;;;0.70;;
58926;SDS011;44712;52.530;9.760;2022-09-01T12:05:56;1.67;;;0.70;;
58926;SDS011;44712;52.530;9.760;2022-09-01T12:08:27;1.75;;;0.80;;
58926;SDS011;44712;52.530;9.760;2022-09-01T12:11:04;2.30;;;0.90;;
58926;SDS011;44712;52.530;9.760;2022-09-01T12:13:34;2.60;;;0.95;;
58926;SDS011;44712;52.530;9.760;2022-09-01T12:16:02;3.00;;;0.90;;
58926;SDS011;44712;52.530;9.760;2022-09-01T12:18:47;1.20;;;0.77;;
58926;SDS011;44712;52.530;9.760;2022-09-01T12:21:28;2.70;;;0.90;;
58926;SDS011;44712;52.530;9.760;2022-09-01T12:26:59;1.00;;;0.77;;
58926;SDS011;44712;52.530;9.760;2022-09-01T12:29:27;1.75;;;0.70;;
58926;SDS011;44712;52.530;9.760;2022-09-01T12:31:57;2.50;;;1.45;;
58926;SDS011;44712;52.530;9.760;2022-09-01T12:34:36;0.90;;;0.60;;
58926;SDS011;44712;52.530;9.760;2022-09-01T12:39:42;1.63;;;0.98;;
58926;SDS011;44712;52.530;9.760;2022-09-01T12:44:46;0.95;;;0.60;;
58926;SDS011;44712;52.530;9.760;2022-09-01T12:49:59;2.58;;;0.77;;
58926;SDS011;44712;52.530;9.760;2022-09-01T12:52:29;0.80;;;0.63;;
58926;SDS011;44712;52.530;9.760;2022-09-01T12:57:25;1.38;;;0.65;;
58926;SDS011;44712;52.530;9.760;2022-09-01T13:05:35;1.10;;;0.70;;
58926;SDS011;44712;52.530;9.760;2022-09-01T13:08:09;2.40;;;0.68;;
58926;SDS011;44712;52.530;9.760;2022-09-01T13:10:45;1.30;;;0.82;;
58926;SDS011;44712;52.530;9.760;2022-09-01T13:13:25;1.35;;;0.80;;
58926;SDS011;44712;52.530;9.760;2022-09-01T13:15:54;1.15;;;0.77;;
58926;SDS011;44712;52.530;9.760;2022-09-01T13:18:27;1.65;;;0.80;;
58926;SDS011;44712;52.530;9.760;2022-09-01T13:20:54;1.33;;;0.70;;
58926;SDS011;44712;52.530;9.760;2022-09-01T13:23:22;1.52;;;0.90;;
58926;SDS011;44712;52.530;9.760;2022-09-01T13:25:49;1.63;;;0.70;;
58926;SDS011;44712;52.530;9.760;2022-09-01T13:28:20;2.55;;;0.73;;
58926;SDS011;44712;52.530;9.760;2022-09-01T13:30:54;1.33;;;0.70;;
58926;SDS011;44712;52.530;9.760;2022-09-01T13:33:43;0.70;;;0.50;;
58926;SDS011;44712;52.530;9.760;2022-09-01T13:36:30;1.23;;;0.70;;
58926;SDS011;44712;52.530;9.760;2022-09-01T13:39:17;1.92;;;0.70;;
58926;SDS011;44712;52.530;9.760;2022-09-01T13:41:46;1.42;;;0.75;;
58926;SDS011;44712;52.530;9.760;2022-09-01T13:44:13;1.92;;;0.70;;
58926;SDS011;44712;52.530;9.760;2022-09-01T13:46:42;3.00;;;0.70;;
58926;SDS011;44712;52.530;9.760;2022-09-01T13:49:30;4.13;;;1.20;;
58926;SDS011;44712;52.530;9.760;2022-09-01T13:52:16;1.08;;;0.80;;
58926;SDS011;44712;52.530;9.760;2022-09-01T13:54:44;0.95;;;0.73;;
58926;SDS011;44712;52.530;9.760;2022-09-01T13:57:11;3.17;;;0.65;;
58926;SDS011;44712;52.530;9.760;2022-09-01T13:59:37;0.98;;;0.47;;
58926;SDS011;44712;52.530;9.760;2022-09-01T14:02:04;1.95;;;0.93;;
58926;SDS011;44712;52.530;9.760;2022-09-01T14:04:31;1.63;;;0.70;;
58926;SDS011;44712;52.530;9.760;2022-09-01T14:06:59;5.32;;;0.85;;
58926;SDS011;44712;52.530;9.760;2022-09-01T14:09:25;1.23;;;0.60;;
58926;SDS011;44712;52.530;9.760;2022-09-01T14:11:53;2.33;;;0.80;;
58926;SDS011;44712;52.530;9.760;2022-09-01T14:14:21;1.38;;;0.60;;
58926;SDS011;44712;52.530;9.760;2022-09-01T14:16:48;1.10;;;0.75;;
58926;SDS011;44712;52.530;9.760;2022-09-01T14:19:15;1.20;;;0.60;;
58926;SDS011;44712;52.530;9.760;2022-09-01T14:21:42;1.20;;;0.70;;
58926;SDS011;44712;52.530;9.760;2022-09-01T14:24:11;3.17;;;0.98;;
58926;SDS011;44712;52.530;9.760;2022-09-01T14:26:39;1.88;;;0.70;;
58926;SDS011;44712;52.530;9.760;2022-09-01T14:29:06;1.70;;;0.80;;
58926;SDS011;44712;52.530;9.760;2022-09-01T14:31:33;2.03;;;0.77;;
58926;SDS011;44712;52.530;9.760;2022-09-01T14:34:01;1.67;;;0.73;;
58926;SDS011;44712;52.530;9.760;2022-09-01T14:36:29;1.48;;;0.70;;
58926;SDS011;44712;52.530;9.760;2022-09-01T14:38:56;2.95;;;1.00;;
58926;SDS011;44712;52.530;9.760;2022-09-01T14:41:24;2.85;;;0.70;;
58926;SDS011;44712;52.530;9.760;2022-09-01T14:43:54;2.45;;;0.90;;
58926;SDS011;44712;52.530;9.760;2022-09-01T14:46:29;2.08;;;0.90;;
58926;SDS011;44712;52.530;9.760;2022-09-01T14:49:00;1.98;;;0.77;;
58926;SDS011;44712;52.530;9.760;2022-09-01T14:51:28;2.35;;;0.90;;
58926;SDS011;44712;52.530;9.760;2022-09-01T14:54:18;3.60;;;0.98;;
58926;SDS011;44712;52.530;9.760;2022-09-01T14:56:44;0.85;;;0.65;;
58926;SDS011;44712;52.530;9.760;2022-09-01T14:59:32;1.10;;;0.70;;
58926;SDS011;44712;52.530;9.760;2022-09-01T15:02:00;2.45;;;0.70;;
58926;SDS011;44712;52.530;9.760;2022-09-01T15:04:26;1.60;;;0.93;;
58926;SDS011;44712;52.530;9.760;2022-09-01T15:06:53;1.67;;;0.73;;
58926;SDS011;44712;52.530;9.760;2022-09-01T15:09:20;1.48;;;0.80;;
58926;SDS011;44712;52.530;9.760;2022-09-01T15:11:48;2.35;;;0.80;;
58926;SDS011;44712;52.530;9.760;2022-09-01T15:14:15;1.17;;;0.80;;
58926;SDS011;44712;52.530;9.760;2022-09-01T15:16:41;1.10;;;0.70;;
58926;SDS011;44712;52.530;9.760;2022-09-01T15:19:09;2.88;;;0.65;;
58926;SDS011;44712;52.530;9.760;2022-09-01T15:21:37;1.55;;;0.60;;
58926;SDS011;44712;52.530;9.760;2022-09-01T15:24:07;1.60;;;0.90;;
58926;SDS011;44712;52.530;9.760;2022-09-01T15:26:34;2.40;;;1.02;;
58926;SDS011;44712;52.530;9.760;2022-09-01T15:29:02;1.58;;;0.80;;
58926;SDS011;44712;52.530;9.760;2022-09-01T15:31:29;1.77;;;0.80;;
58926;SDS011;44712;52.530;9.760;2022-09-01T15:34:00;1.80;;;0.70;;
58926;SDS011;44712;52.530;9.760;2022-09-01T15:36:28;1.48;;;0.70;;
58926;SDS011;44712;52.530;9.760;2022-09-01T15:38:56;1.60;;;0.60;;
58926;SDS011;44712;52.530;9.760;2022-09-01T15:41:25;1.55;;;0.80;;
58926;SDS011;44712;52.530;9.760;2022-09-01T15:43:54;2.90;;;1.08;;
58926;SDS011;44712;52.530;9.760;2022-09-01T15:46:22;1.27;;;0.70;;
58926;SDS011;44712;52.530;9.760;2022-09-01T15:48:57;0.75;;;0.63;;
58926;SDS011;44712;52.530;9.760;2022-09-01T15:51:30;1.98;;;0.77;;
58926;SDS011;44712;52.530;9.760;2022-09-01T15:54:01;1.90;;;0.80;;
58926;SDS011;44712;52.530;9.760;2022-09-01T15:56:31;1.02;;;0.60;;
58926;SDS011;44712;52.530;9.760;2022-09-01T15:58:58;1.30;;;0.80;;
58926;SDS011;44712;52.530;9.760;2022-09-01T16:01:28;0.95;;;0.80;;
58926;SDS011;44712;52.530;9.760;2022-09-01T16:03:56;1.83;;;0.80;;
58926;SDS011;44712;52.530;9.760;2022-09-01T16:06:24;1.38;;;0.70;;
58926;SDS011;44712;52.530;9.760;2022-09-01T16:08:51;1.30;;;0.68;;
58926;SDS011;44712;52.530;9.760;2022-09-01T16:11:23;1.38;;;0.70;;
58926;SDS011;44712;52.530;9.760;2022-09-01T16:13:51;1.92;;;0.73;;
58926;SDS011;44712;52.530;9.760;2022-09-01T16:24:45;1.92;;;1.23;;
58926;SDS011;44712;52.530;9.760;2022-09-01T16:27:18;0.63;;;0.55;;
58926;SDS011;44712;52.530;9.760;2022-09-01T16:29:50;1.00;;;0.70;;
58926;SDS011;44712;52.530;9.760;2022-09-01T16:32:20;0.93;;;0.70;;
58926;SDS011;44712;52.530;9.760;2022-09-01T16:34:51;3.13;;;0.80;;
58926;SDS011;44712;52.530;9.760;2022-09-01T16:43:08;3.28;;;0.70;;
58926;SDS011;44712;52.530;9.760;2022-09-01T16:48:59;2.05;;;0.80;;
58926;SDS011;44712;52.530;9.760;2022-09-01T16:51:45;3.83;;;0.60;;
58926;SDS011;44712;52.530;9.760;2022-09-01T16:54:28;1.15;;;0.70;;
58926;SDS011;44712;52.530;9.760;2022-09-01T16:59:55;0.60;;;0.50;;
58926;SDS011;44712;52.530;9.760;2022-09-01T17:07:56;1.70;;;0.70;;
58926;SDS011;44712;52.530;9.760;2022-09-01T17:10:42;1.85;;;0.80;;
58926;SDS011;44712;52.530;9.760;2022-09-01T17:13:38;2.47;;;0.80;;